Terminal Aerodrome Forecast
Issued by NWS El Paso, TX

Home | Current Version | Previous Version | Text Only | Print | Product List | Glossary On
Versions: 1 2 3 4 5 6 7 8 9 10 11 12 13 14
043
FTUS44 KEPZ 301740
TAFELP
TAF
KELP 301740Z 3018/3118 14009KT P6SM SCT060 SCT200
     FM302100 15008KT P6SM VCTS SCT070CB SCT100 BKN220
     FM310200 15008KT P6SM SCT080 BKN250=

USA.gov is the U.S. government's official web portal to all federal, state and local government web resources and services.